createdAt,value
2023-05-13T00:04:40.758Z,8.15
2023-05-13T00:09:44.093Z,6.88
2023-05-13T00:14:47.392Z,6.03
2023-05-13T00:19:52.050Z,6.30
2023-05-13T00:24:55.299Z,5.73
2023-05-13T00:30:00.045Z,7.10
2023-05-13T00:35:05.647Z,6.68
2023-05-13T00:45:20.690Z,5.43
2023-05-13T00:50:26.127Z,5.77
2023-05-13T00:55:29.981Z,5.43
2023-05-13T01:00:38.569Z,5.85
2023-05-13T01:05:53.680Z,5.85
2023-05-13T01:11:00.226Z,4.88
2023-05-13T01:16:12.305Z,5.50
2023-05-13T01:21:17.501Z,5.35
2023-05-13T01:26:24.516Z,5.55
2023-05-13T01:31:28.662Z,6.10
2023-05-13T01:36:32.638Z,6.22
2023-05-13T01:41:38.099Z,6.38
2023-05-13T01:51:45.712Z,6.35
2023-05-13T01:56:50.803Z,4.93
2023-05-13T02:01:55.349Z,6.30
2023-05-13T02:06:59.081Z,5.10
2023-05-13T02:12:08.629Z,4.93
2023-05-13T02:17:12.366Z,5.00
2023-05-13T02:22:16.079Z,5.47
2023-05-13T02:27:21.232Z,5.25
2023-05-13T02:32:24.996Z,6.15
2023-05-13T02:37:28.886Z,5.05
2023-05-13T02:42:39.638Z,6.10
2023-05-13T02:47:44.499Z,5.60
2023-05-13T02:52:48.180Z,5.78
2023-05-13T02:57:53.098Z,5.90
2023-05-13T03:02:58.092Z,5.65
2023-05-13T03:08:02.154Z,6.72
2023-05-13T03:13:07.231Z,6.03
2023-05-13T03:18:12.056Z,6.00
2023-05-13T03:23:16.235Z,5.57
2023-05-13T03:33:25.845Z,5.60
2023-05-13T03:38:29.374Z,6.53
2023-05-13T03:43:34.755Z,6.10
2023-05-13T03:48:43.713Z,6.57
2023-05-13T03:53:47.135Z,6.18
2023-05-13T03:58:52.207Z,6.55
2023-05-13T04:03:55.826Z,5.97
2023-05-13T04:08:59.094Z,6.43
2023-05-13T04:14:03.965Z,6.68
2023-05-13T04:19:07.733Z,6.70
2023-05-13T04:24:11.374Z,5.93
2023-05-13T04:29:18.341Z,6.43
2023-05-13T04:34:22.264Z,7.35
2023-05-13T04:39:26.117Z,6.55
2023-05-13T04:44:31.403Z,6.18
2023-05-13T04:54:40.053Z,5.40
2023-05-13T04:59:45.616Z,6.77
2023-05-13T05:04:50.260Z,7.20
2023-05-13T05:09:54.804Z,6.63
2023-05-13T05:15:00.242Z,6.70
2023-05-13T05:20:04.897Z,6.85
2023-05-13T05:25:09.431Z,7.43
2023-05-13T05:30:16.110Z,6.60
2023-05-13T05:35:23.817Z,7.25
2023-05-13T05:40:28.007Z,7.03
2023-05-13T05:45:33.273Z,6.78
2023-05-13T05:50:37.593Z,6.90
2023-05-13T05:55:43.939Z,7.32
2023-05-13T06:00:48.679Z,7.55
2023-05-13T06:05:52.694Z,7.45
2023-05-13T06:10:58.660Z,7.35
2023-05-13T06:16:04.503Z,6.95
2023-05-13T06:21:08.248Z,6.45
2023-05-13T06:26:11.894Z,6.57
2023-05-13T06:31:17.482Z,5.50
2023-05-13T06:36:22.569Z,5.22
2023-05-13T06:41:27.029Z,4.35
2023-05-13T06:46:37.458Z,4.97
2023-05-13T06:51:41.480Z,5.97
2023-05-13T06:56:45.075Z,4.80
2023-05-13T07:01:52.032Z,3.45
2023-05-13T07:06:55.637Z,3.40
2023-05-13T07:11:59.183Z,3.15
2023-05-13T07:17:04.568Z,2.92
2023-05-13T07:27:11.576Z,2.33
2023-05-13T07:32:16.306Z,2.53
2023-05-13T07:37:19.863Z,2.50
2023-05-13T07:42:23.455Z,2.80
2023-05-13T07:47:29.463Z,2.03
2023-05-13T07:52:33.774Z,2.17
2023-05-13T07:57:37.080Z,2.28
2023-05-13T08:02:44.203Z,2.33
2023-05-13T08:07:47.898Z,2.33
2023-05-13T08:12:57.556Z,2.35
2023-05-13T08:18:02.207Z,2.90
2023-05-13T08:23:06.257Z,3.67
2023-05-13T08:28:09.443Z,2.70
2023-05-13T08:33:14.050Z,2.55
2023-05-13T08:38:17.278Z,2.95
2023-05-13T08:43:21.281Z,3.03
2023-05-13T08:48:26.203Z,3.08
2023-05-13T08:53:31.916Z,3.35
2023-05-13T08:58:35.719Z,2.67
2023-05-13T09:03:46.718Z,3.08
2023-05-13T09:08:50.539Z,3.05
2023-05-13T09:14:00.542Z,3.35
2023-05-13T09:19:07.793Z,2.58
2023-05-13T09:24:13.572Z,3.15
2023-05-13T09:29:22.438Z,3.20
2023-05-13T09:34:32.001Z,3.33
2023-05-13T09:39:41.435Z,3.10
2023-05-13T09:44:45.680Z,2.83
2023-05-13T09:49:57.690Z,3.33
2023-05-13T09:55:01.350Z,3.50
2023-05-13T10:00:10.982Z,3.85
2023-05-13T10:05:20.671Z,2.92
2023-05-13T10:10:25.913Z,3.17
2023-05-13T10:20:34.079Z,3.22
2023-05-13T10:25:37.903Z,3.33
2023-05-13T10:30:41.566Z,3.08
2023-05-13T10:36:01.762Z,4.43
2023-05-13T10:41:16.166Z,3.08
2023-05-13T10:46:20.785Z,3.50
2023-05-13T10:51:26.292Z,3.28
2023-05-13T10:56:29.961Z,2.88
2023-05-13T11:01:39.277Z,3.20
2023-05-13T11:06:46.389Z,3.33
2023-05-13T11:11:54.318Z,3.00
2023-05-13T11:17:13.061Z,2.90
2023-05-13T11:22:22.018Z,3.00
2023-05-13T11:27:25.686Z,2.80
2023-05-13T11:32:53.837Z,3.05
2023-05-13T11:38:00.630Z,3.28
2023-05-13T11:43:05.562Z,2.70
2023-05-13T11:48:20.343Z,3.15
2023-05-13T11:53:24.974Z,2.83
2023-05-13T11:58:28.134Z,2.95
2023-05-13T12:03:31.720Z,2.58
2023-05-13T12:08:36.268Z,3.13
2023-05-13T12:13:40.674Z,5.20
2023-05-13T12:18:43.962Z,2.88
2023-05-13T12:23:48.539Z,2.83
2023-05-13T12:28:58.169Z,3.85
2023-05-13T12:34:01.396Z,2.53
2023-05-13T12:39:08.954Z,2.00
2023-05-13T12:44:15.085Z,2.30
2023-05-13T12:49:18.486Z,2.22
2023-05-13T12:54:23.025Z,2.42
2023-05-13T12:59:29.442Z,2.10
2023-05-13T13:04:32.628Z,2.40
2023-05-13T13:09:37.378Z,2.40
2023-05-13T13:19:43.609Z,2.00
2023-05-13T13:24:48.174Z,3.58
2023-05-13T13:34:55.201Z,2.70
2023-05-13T13:40:00.388Z,2.88
2023-05-13T13:45:04.093Z,2.58
2023-05-13T13:50:08.330Z,2.70
2023-05-13T13:55:14.486Z,3.67
2023-05-13T14:00:18.365Z,2.47
2023-05-13T14:05:21.564Z,2.40
2023-05-13T14:10:26.092Z,2.03
2023-05-13T14:15:30.785Z,1.80
2023-05-13T14:20:35.683Z,2.35
2023-05-13T14:25:40.653Z,3.65
2023-05-13T14:30:44.365Z,2.50
2023-05-13T14:35:47.952Z,2.45
2023-05-13T14:40:52.921Z,2.33
2023-05-13T14:45:56.174Z,2.13
2023-05-13T14:50:59.411Z,2.85
2023-05-13T14:56:04.033Z,2.83
2023-05-13T15:01:07.213Z,5.03
2023-05-13T15:06:10.571Z,2.30
2023-05-13T15:11:15.294Z,2.15
2023-05-13T15:16:18.645Z,2.22
2023-05-13T15:21:21.937Z,2.20
2023-05-13T15:26:27.061Z,2.22
2023-05-13T15:31:31.819Z,2.25
2023-05-13T15:36:36.072Z,2.35
2023-05-13T15:41:40.800Z,1.98
2023-05-13T15:46:46.179Z,2.25
2023-05-13T15:51:50.673Z,2.63
2023-05-13T15:56:56.633Z,1.88
2023-05-13T16:01:59.963Z,2.20
2023-05-13T16:07:03.225Z,2.72
2023-05-13T16:12:08.451Z,1.52
2023-05-13T16:17:12.825Z,1.67
2023-05-13T16:22:38.284Z,1.77
2023-05-13T16:27:43.382Z,1.75
2023-05-13T16:32:53.004Z,1.95
2023-05-13T16:37:56.844Z,1.70
2023-05-13T16:43:03.904Z,1.80
2023-05-13T16:48:08.194Z,1.85
2023-05-13T16:53:11.941Z,2.70
2023-05-13T16:58:16.799Z,1.70
2023-05-13T17:03:20.480Z,1.80
2023-05-13T17:08:24.826Z,3.13
2023-05-13T17:13:29.450Z,3.95
2023-05-13T17:18:32.713Z,2.25
2023-05-13T17:23:36.047Z,1.63
2023-05-13T17:28:41.180Z,1.52
2023-05-13T17:33:44.658Z,1.77
2023-05-13T17:38:48.714Z,1.92
2023-05-13T17:43:53.303Z,1.70
2023-05-13T17:48:56.963Z,2.08
2023-05-13T17:54:00.674Z,1.70
2023-05-13T17:59:05.669Z,1.90
2023-05-13T18:09:12.766Z,1.88
2023-05-13T18:14:17.875Z,1.95
2023-05-13T18:19:21.512Z,2.58
2023-05-13T18:24:25.057Z,2.80
2023-05-13T18:29:30.145Z,4.20
2023-05-13T18:34:34.680Z,3.20
2023-05-13T18:39:38.335Z,2.45
2023-05-13T18:44:42.871Z,2.67
2023-05-13T18:49:46.518Z,3.47
2023-05-13T18:54:50.100Z,3.92
2023-05-13T18:59:55.121Z,2.70
2023-05-13T19:04:58.669Z,3.35
2023-05-13T19:10:01.851Z,3.03
2023-05-13T19:15:07.496Z,3.20
2023-05-13T19:20:11.770Z,2.80
2023-05-13T19:25:15.002Z,3.40
2023-05-13T19:30:19.718Z,3.30
2023-05-13T19:35:23.513Z,3.50
2023-05-13T19:40:26.743Z,3.53
2023-05-13T19:45:31.479Z,3.85
2023-05-13T19:50:34.686Z,3.73
2023-05-13T19:55:38.285Z,3.50
2023-05-13T20:00:44.051Z,3.65
2023-05-13T20:05:48.698Z,3.85
2023-05-13T20:10:52.266Z,3.87
2023-05-13T20:15:57.237Z,3.35
2023-05-13T20:21:00.752Z,3.28
2023-05-13T20:26:04.001Z,3.85
2023-05-13T20:31:09.078Z,3.58
2023-05-13T20:36:12.384Z,4.03
2023-05-13T20:41:16.001Z,3.75
2023-05-13T20:46:21.020Z,2.60
2023-05-13T20:51:24.773Z,3.05
2023-05-13T20:56:28.050Z,3.05
2023-05-13T21:01:33.984Z,2.92
2023-05-13T21:06:37.296Z,3.53
2023-05-13T21:11:40.573Z,3.50
2023-05-13T21:16:45.150Z,3.10
2023-05-13T21:21:48.509Z,3.13
2023-05-13T21:26:52.193Z,3.45
2023-05-13T21:31:57.404Z,3.25
2023-05-13T21:37:01.014Z,3.67
2023-05-13T21:42:04.653Z,3.92
2023-05-13T21:47:09.670Z,3.55
2023-05-13T21:52:13.232Z,3.75
2023-05-13T21:57:17.357Z,3.05
2023-05-13T22:02:22.739Z,3.63
2023-05-13T22:12:29.741Z,3.10
2023-05-13T22:17:34.949Z,3.13
2023-05-13T22:22:38.991Z,3.80
2023-05-13T22:27:42.651Z,3.53
2023-05-13T22:32:47.899Z,3.72
2023-05-13T22:37:53.036Z,3.72
2023-05-13T22:42:56.759Z,3.83
2023-05-13T22:48:01.435Z,3.95
2023-05-13T22:53:04.705Z,3.87
2023-05-13T22:58:08.156Z,4.18
2023-05-13T23:03:12.722Z,4.32
2023-05-13T23:08:15.905Z,4.23
2023-05-13T23:13:19.177Z,4.15
2023-05-13T23:18:24.283Z,4.25
2023-05-13T23:23:27.996Z,4.35
2023-05-13T23:28:31.777Z,4.10
2023-05-13T23:33:36.742Z,4.05
2023-05-13T23:38:40.770Z,4.20
2023-05-13T23:43:44.383Z,4.25
2023-05-13T23:48:48.946Z,4.47
2023-05-13T23:53:54.381Z,4.37
